Open Full Screen Window  High Contrast Mode
Wind Gusting 22 knots
17
November 01, 2014 7:58 AM CDT
Weather Information
Wind Direction
  340 °
Wind Speed
  17 kt (20 mph)
Wind Gust
  22 kt (25 mph)
Altimeter
30.25 in
Visibility
10 SM
Temperature
00° C
32° F
Dewpoint
-01° C
30° F
Humidity
93%
Sky Condition
Overcast @ 1,800 ft
MVFR

METAR KAXV 011258Z AUTO 34017G22KT 10SM OVC018 00/M01 A3025 RMK AO2

*Background is not an actual portrayal of the airport.